sensor_id;sensor_type;location;lat;lon;timestamp;P1;durP1;ratioP1;P2;durP2;ratioP2
23676;SDS011;31493;49.058;12.190;2023-03-14T00:01:58;3.83;;;1.70;;
23676;SDS011;31493;49.058;12.190;2023-03-14T00:04:25;3.80;;;1.70;;
23676;SDS011;31493;49.058;12.190;2023-03-14T00:06:52;3.67;;;1.40;;
23676;SDS011;31493;49.058;12.190;2023-03-14T00:09:19;3.55;;;1.55;;
23676;SDS011;31493;49.058;12.190;2023-03-14T00:11:47;2.17;;;1.42;;
23676;SDS011;31493;49.058;12.190;2023-03-14T00:14:14;3.63;;;1.40;;
23676;SDS011;31493;49.058;12.190;2023-03-14T00:16:45;3.22;;;1.05;;
23676;SDS011;31493;49.058;12.190;2023-03-14T00:19:12;3.33;;;1.05;;
23676;SDS011;31493;49.058;12.190;2023-03-14T00:21:39;1.75;;;1.23;;
23676;SDS011;31493;49.058;12.190;2023-03-14T00:24:07;3.40;;;1.40;;
23676;SDS011;31493;49.058;12.190;2023-03-14T00:26:34;3.08;;;1.70;;
23676;SDS011;31493;49.058;12.190;2023-03-14T00:29:03;1.92;;;1.35;;
23676;SDS011;31493;49.058;12.190;2023-03-14T00:31:30;2.38;;;1.40;;
23676;SDS011;31493;49.058;12.190;2023-03-14T00:33:57;1.95;;;1.10;;
23676;SDS011;31493;49.058;12.190;2023-03-14T00:36:24;2.42;;;1.52;;
23676;SDS011;31493;49.058;12.190;2023-03-14T00:38:51;2.28;;;1.40;;
23676;SDS011;31493;49.058;12.190;2023-03-14T00:41:19;1.80;;;1.33;;
23676;SDS011;31493;49.058;12.190;2023-03-14T00:43:48;2.97;;;1.70;;
23676;SDS011;31493;49.058;12.190;2023-03-14T00:46:17;2.22;;;1.40;;
23676;SDS011;31493;49.058;12.190;2023-03-14T00:48:44;4.50;;;1.60;;
23676;SDS011;31493;49.058;12.190;2023-03-14T00:51:12;3.97;;;1.63;;
23676;SDS011;31493;49.058;12.190;2023-03-14T00:53:40;1.52;;;1.30;;
23676;SDS011;31493;49.058;12.190;2023-03-14T00:56:09;3.08;;;1.15;;
23676;SDS011;31493;49.058;12.190;2023-03-14T00:58:37;2.47;;;1.10;;
23676;SDS011;31493;49.058;12.190;2023-03-14T01:01:05;2.50;;;1.30;;
23676;SDS011;31493;49.058;12.190;2023-03-14T01:03:34;3.55;;;1.20;;
23676;SDS011;31493;49.058;12.190;2023-03-14T01:06:08;2.63;;;1.30;;
23676;SDS011;31493;49.058;12.190;2023-03-14T01:08:37;1.67;;;1.08;;
23676;SDS011;31493;49.058;12.190;2023-03-14T01:11:07;4.63;;;1.40;;
23676;SDS011;31493;49.058;12.190;2023-03-14T01:13:35;2.72;;;0.90;;
23676;SDS011;31493;49.058;12.190;2023-03-14T01:16:03;2.47;;;0.73;;
23676;SDS011;31493;49.058;12.190;2023-03-14T01:21:02;2.22;;;0.90;;
23676;SDS011;31493;49.058;12.190;2023-03-14T01:25:57;4.80;;;0.80;;
23676;SDS011;31493;49.058;12.190;2023-03-14T01:28:24;2.13;;;0.80;;
23676;SDS011;31493;49.058;12.190;2023-03-14T01:30:51;1.40;;;0.88;;
23676;SDS011;31493;49.058;12.190;2023-03-14T01:33:18;1.35;;;0.80;;
23676;SDS011;31493;49.058;12.190;2023-03-14T01:35:49;2.13;;;0.90;;
23676;SDS011;31493;49.058;12.190;2023-03-14T01:38:16;2.28;;;0.90;;
23676;SDS011;31493;49.058;12.190;2023-03-14T01:40:43;1.02;;;0.80;;
23676;SDS011;31493;49.058;12.190;2023-03-14T01:43:14;2.42;;;0.75;;
23676;SDS011;31493;49.058;12.190;2023-03-14T01:46:01;1.52;;;0.93;;
23676;SDS011;31493;49.058;12.190;2023-03-14T01:48:43;1.60;;;0.88;;
23676;SDS011;31493;49.058;12.190;2023-03-14T01:51:17;1.58;;;0.82;;
23676;SDS011;31493;49.058;12.190;2023-03-14T01:53:46;1.27;;;0.75;;
23676;SDS011;31493;49.058;12.190;2023-03-14T01:56:15;1.00;;;0.85;;
23676;SDS011;31493;49.058;12.190;2023-03-14T01:58:45;2.10;;;0.90;;
23676;SDS011;31493;49.058;12.190;2023-03-14T02:01:16;2.28;;;1.00;;
23676;SDS011;31493;49.058;12.190;2023-03-14T02:03:47;2.72;;;1.00;;
23676;SDS011;31493;49.058;12.190;2023-03-14T02:06:19;1.90;;;0.93;;
23676;SDS011;31493;49.058;12.190;2023-03-14T02:08:49;3.97;;;1.00;;
23676;SDS011;31493;49.058;12.190;2023-03-14T02:11:17;1.48;;;0.82;;
23676;SDS011;31493;49.058;12.190;2023-03-14T02:13:44;0.80;;;0.50;;
23676;SDS011;31493;49.058;12.190;2023-03-14T02:16:12;1.05;;;0.63;;
23676;SDS011;31493;49.058;12.190;2023-03-14T02:18:39;2.00;;;0.68;;
23676;SDS011;31493;49.058;12.190;2023-03-14T02:21:09;1.60;;;0.68;;
23676;SDS011;31493;49.058;12.190;2023-03-14T02:23:46;0.88;;;0.50;;
23676;SDS011;31493;49.058;12.190;2023-03-14T02:26:26;0.52;;;0.40;;
23676;SDS011;31493;49.058;12.190;2023-03-14T02:28:59;2.17;;;0.50;;
23676;SDS011;31493;49.058;12.190;2023-03-14T02:31:26;0.88;;;0.57;;
23676;SDS011;31493;49.058;12.190;2023-03-14T02:33:54;0.88;;;0.40;;
23676;SDS011;31493;49.058;12.190;2023-03-14T02:36:22;2.17;;;0.55;;
23676;SDS011;31493;49.058;12.190;2023-03-14T02:38:51;1.90;;;0.50;;
23676;SDS011;31493;49.058;12.190;2023-03-14T02:41:22;0.80;;;0.45;;
23676;SDS011;31493;49.058;12.190;2023-03-14T02:43:49;0.25;;;0.25;;
23676;SDS011;31493;49.058;12.190;2023-03-14T02:46:17;0.60;;;0.38;;
23676;SDS011;31493;49.058;12.190;2023-03-14T02:48:47;0.38;;;0.30;;
23676;SDS011;31493;49.058;12.190;2023-03-14T02:51:17;0.85;;;0.40;;
23676;SDS011;31493;49.058;12.190;2023-03-14T02:53:44;0.47;;;0.30;;
23676;SDS011;31493;49.058;12.190;2023-03-14T02:56:11;1.05;;;0.30;;
23676;SDS011;31493;49.058;12.190;2023-03-14T02:58:38;0.70;;;0.20;;
23676;SDS011;31493;49.058;12.190;2023-03-14T03:01:06;0.38;;;0.38;;
23676;SDS011;31493;49.058;12.190;2023-03-14T03:03:34;0.30;;;0.20;;
23676;SDS011;31493;49.058;12.190;2023-03-14T03:06:01;0.20;;;0.20;;
23676;SDS011;31493;49.058;12.190;2023-03-14T03:08:28;0.20;;;0.20;;
23676;SDS011;31493;49.058;12.190;2023-03-14T03:10:56;0.35;;;0.30;;
23676;SDS011;31493;49.058;12.190;2023-03-14T03:13:24;0.63;;;0.40;;
23676;SDS011;31493;49.058;12.190;2023-03-14T03:15:52;0.57;;;0.35;;
23676;SDS011;31493;49.058;12.190;2023-03-14T03:18:19;0.73;;;0.38;;
23676;SDS011;31493;49.058;12.190;2023-03-14T03:20:48;1.63;;;0.40;;
23676;SDS011;31493;49.058;12.190;2023-03-14T03:23:15;1.15;;;0.40;;
23676;SDS011;31493;49.058;12.190;2023-03-14T03:25:47;1.70;;;0.38;;
23676;SDS011;31493;49.058;12.190;2023-03-14T03:28:15;0.60;;;0.30;;
23676;SDS011;31493;49.058;12.190;2023-03-14T03:30:42;1.33;;;0.47;;
23676;SDS011;31493;49.058;12.190;2023-03-14T03:33:10;0.30;;;0.30;;
23676;SDS011;31493;49.058;12.190;2023-03-14T03:35:44;0.87;;;0.50;;
23676;SDS011;31493;49.058;12.190;2023-03-14T03:38:13;0.40;;;0.40;;
23676;SDS011;31493;49.058;12.190;2023-03-14T03:40:40;1.00;;;0.40;;
23676;SDS011;31493;49.058;12.190;2023-03-14T03:43:08;2.10;;;0.43;;
23676;SDS011;31493;49.058;12.190;2023-03-14T03:45:36;1.85;;;0.40;;
23676;SDS011;31493;49.058;12.190;2023-03-14T03:48:03;1.08;;;0.30;;
23676;SDS011;31493;49.058;12.190;2023-03-14T03:50:30;0.88;;;0.47;;
23676;SDS011;31493;49.058;12.190;2023-03-14T03:52:57;0.90;;;0.40;;
23676;SDS011;31493;49.058;12.190;2023-03-14T03:55:26;0.47;;;0.40;;
23676;SDS011;31493;49.058;12.190;2023-03-14T03:57:53;0.57;;;0.30;;
23676;SDS011;31493;49.058;12.190;2023-03-14T04:00:20;0.40;;;0.40;;
23676;SDS011;31493;49.058;12.190;2023-03-14T04:02:48;1.38;;;0.50;;
23676;SDS011;31493;49.058;12.190;2023-03-14T04:05:15;0.35;;;0.20;;
23676;SDS011;31493;49.058;12.190;2023-03-14T04:07:42;0.80;;;0.30;;
23676;SDS011;31493;49.058;12.190;2023-03-14T04:10:09;0.40;;;0.30;;
23676;SDS011;31493;49.058;12.190;2023-03-14T04:12:38;0.75;;;0.40;;
23676;SDS011;31493;49.058;12.190;2023-03-14T04:15:05;1.75;;;0.50;;
23676;SDS011;31493;49.058;12.190;2023-03-14T04:17:33;0.98;;;0.50;;
23676;SDS011;31493;49.058;12.190;2023-03-14T04:20:00;0.52;;;0.40;;
23676;SDS011;31493;49.058;12.190;2023-03-14T04:22:28;2.25;;;0.30;;
23676;SDS011;31493;49.058;12.190;2023-03-14T04:24:55;0.40;;;0.30;;
23676;SDS011;31493;49.058;12.190;2023-03-14T04:27:22;0.90;;;0.40;;
23676;SDS011;31493;49.058;12.190;2023-03-14T04:29:50;1.80;;;0.30;;
23676;SDS011;31493;49.058;12.190;2023-03-14T04:32:17;0.43;;;0.35;;
23676;SDS011;31493;49.058;12.190;2023-03-14T04:34:44;1.38;;;0.60;;
23676;SDS011;31493;49.058;12.190;2023-03-14T04:37:12;0.80;;;0.30;;
23676;SDS011;31493;49.058;12.190;2023-03-14T04:39:39;1.42;;;0.40;;
23676;SDS011;31493;49.058;12.190;2023-03-14T04:42:06;0.32;;;0.28;;
23676;SDS011;31493;49.058;12.190;2023-03-14T04:44:33;2.50;;;0.50;;
23676;SDS011;31493;49.058;12.190;2023-03-14T04:47:01;0.40;;;0.40;;
23676;SDS011;31493;49.058;12.190;2023-03-14T04:49:28;2.05;;;0.50;;
23676;SDS011;31493;49.058;12.190;2023-03-14T04:51:55;2.95;;;0.38;;
23676;SDS011;31493;49.058;12.190;2023-03-14T04:54:22;0.60;;;0.47;;
23676;SDS011;31493;49.058;12.190;2023-03-14T04:56:49;0.17;;;0.17;;
23676;SDS011;31493;49.058;12.190;2023-03-14T04:59:16;0.70;;;0.47;;
23676;SDS011;31493;49.058;12.190;2023-03-14T05:01:43;1.45;;;0.40;;
23676;SDS011;31493;49.058;12.190;2023-03-14T05:04:12;1.60;;;0.47;;
23676;SDS011;31493;49.058;12.190;2023-03-14T05:06:39;1.08;;;0.47;;
23676;SDS011;31493;49.058;12.190;2023-03-14T05:09:07;1.10;;;0.50;;
23676;SDS011;31493;49.058;12.190;2023-03-14T05:11:34;1.75;;;0.40;;
23676;SDS011;31493;49.058;12.190;2023-03-14T05:14:02;1.05;;;0.60;;
23676;SDS011;31493;49.058;12.190;2023-03-14T05:16:29;1.75;;;0.52;;
23676;SDS011;31493;49.058;12.190;2023-03-14T05:18:56;1.77;;;0.85;;
23676;SDS011;31493;49.058;12.190;2023-03-14T05:21:24;1.60;;;0.52;;
23676;SDS011;31493;49.058;12.190;2023-03-14T05:23:51;0.93;;;0.50;;
23676;SDS011;31493;49.058;12.190;2023-03-14T05:26:19;1.33;;;0.60;;
23676;SDS011;31493;49.058;12.190;2023-03-14T05:28:46;0.85;;;0.43;;
23676;SDS011;31493;49.058;12.190;2023-03-14T05:31:13;0.85;;;0.40;;
23676;SDS011;31493;49.058;12.190;2023-03-14T05:33:40;1.27;;;0.40;;
23676;SDS011;31493;49.058;12.190;2023-03-14T05:36:07;2.58;;;0.40;;
23676;SDS011;31493;49.058;12.190;2023-03-14T05:38:36;0.98;;;0.50;;
23676;SDS011;31493;49.058;12.190;2023-03-14T05:41:03;0.85;;;0.52;;
23676;SDS011;31493;49.058;12.190;2023-03-14T05:43:31;3.20;;;0.55;;
23676;SDS011;31493;49.058;12.190;2023-03-14T05:45:58;2.78;;;0.45;;
23676;SDS011;31493;49.058;12.190;2023-03-14T05:48:25;0.75;;;0.30;;
23676;SDS011;31493;49.058;12.190;2023-03-14T05:50:54;2.03;;;0.50;;
23676;SDS011;31493;49.058;12.190;2023-03-14T05:53:21;0.50;;;0.40;;
23676;SDS011;31493;49.058;12.190;2023-03-14T05:55:51;0.82;;;0.57;;
23676;SDS011;31493;49.058;12.190;2023-03-14T05:58:19;0.85;;;0.30;;
23676;SDS011;31493;49.058;12.190;2023-03-14T06:00:46;0.68;;;0.50;;
23676;SDS011;31493;49.058;12.190;2023-03-14T06:03:14;0.77;;;0.60;;
23676;SDS011;31493;49.058;12.190;2023-03-14T06:05:41;2.10;;;0.40;;
23676;SDS011;31493;49.058;12.190;2023-03-14T06:08:08;1.85;;;0.60;;
23676;SDS011;31493;49.058;12.190;2023-03-14T06:10:35;2.65;;;0.60;;
23676;SDS011;31493;49.058;12.190;2023-03-14T06:13:04;0.52;;;0.45;;
23676;SDS011;31493;49.058;12.190;2023-03-14T06:15:31;1.38;;;0.50;;
23676;SDS011;31493;49.058;12.190;2023-03-14T06:17:59;1.38;;;0.55;;
23676;SDS011;31493;49.058;12.190;2023-03-14T06:20:26;2.35;;;0.60;;
23676;SDS011;31493;49.058;12.190;2023-03-14T06:22:53;0.95;;;0.55;;
23676;SDS011;31493;49.058;12.190;2023-03-14T06:25:20;2.75;;;0.40;;
23676;SDS011;31493;49.058;12.190;2023-03-14T06:27:47;2.65;;;0.77;;
23676;SDS011;31493;49.058;12.190;2023-03-14T06:30:16;1.33;;;0.65;;
23676;SDS011;31493;49.058;12.190;2023-03-14T06:32:43;0.75;;;0.57;;
23676;SDS011;31493;49.058;12.190;2023-03-14T06:35:10;1.67;;;0.47;;
23676;SDS011;31493;49.058;12.190;2023-03-14T06:37:38;2.90;;;0.60;;
23676;SDS011;31493;49.058;12.190;2023-03-14T06:40:05;1.10;;;0.57;;
23676;SDS011;31493;49.058;12.190;2023-03-14T06:42:34;1.38;;;0.63;;
23676;SDS011;31493;49.058;12.190;2023-03-14T06:45:01;1.33;;;0.70;;
23676;SDS011;31493;49.058;12.190;2023-03-14T06:47:30;2.70;;;0.82;;
23676;SDS011;31493;49.058;12.190;2023-03-14T06:49:57;1.15;;;0.82;;
23676;SDS011;31493;49.058;12.190;2023-03-14T06:52:24;1.25;;;0.70;;
23676;SDS011;31493;49.058;12.190;2023-03-14T06:54:51;8.23;;;0.80;;
23676;SDS011;31493;49.058;12.190;2023-03-14T06:57:18;1.20;;;0.70;;
23676;SDS011;31493;49.058;12.190;2023-03-14T06:59:45;1.75;;;0.90;;
23676;SDS011;31493;49.058;12.190;2023-03-14T07:02:12;1.02;;;0.88;;
23676;SDS011;31493;49.058;12.190;2023-03-14T07:04:40;2.28;;;0.80;;
23676;SDS011;31493;49.058;12.190;2023-03-14T07:07:07;1.60;;;0.73;;
23676;SDS011;31493;49.058;12.190;2023-03-14T07:09:34;1.20;;;0.68;;
23676;SDS011;31493;49.058;12.190;2023-03-14T07:12:02;3.08;;;0.63;;
23676;SDS011;31493;49.058;12.190;2023-03-14T07:14:29;1.05;;;0.65;;
23676;SDS011;31493;49.058;12.190;2023-03-14T07:16:57;1.50;;;0.65;;
23676;SDS011;31493;49.058;12.190;2023-03-14T07:19:24;0.80;;;0.55;;
23676;SDS011;31493;49.058;12.190;2023-03-14T07:21:52;2.80;;;0.75;;
23676;SDS011;31493;49.058;12.190;2023-03-14T07:24:19;0.95;;;0.60;;
23676;SDS011;31493;49.058;12.190;2023-03-14T07:26:46;1.02;;;0.70;;
23676;SDS011;31493;49.058;12.190;2023-03-14T07:29:13;1.15;;;0.57;;
23676;SDS011;31493;49.058;12.190;2023-03-14T07:31:40;1.95;;;0.77;;
23676;SDS011;31493;49.058;12.190;2023-03-14T07:34:07;1.15;;;0.60;;
23676;SDS011;31493;49.058;12.190;2023-03-14T07:36:35;1.15;;;0.63;;
23676;SDS011;31493;49.058;12.190;2023-03-14T07:39:03;2.00;;;0.60;;
23676;SDS011;31493;49.058;12.190;2023-03-14T07:41:30;1.42;;;0.47;;
23676;SDS011;31493;49.058;12.190;2023-03-14T07:43:57;0.85;;;0.50;;
23676;SDS011;31493;49.058;12.190;2023-03-14T07:46:24;1.00;;;0.60;;
23676;SDS011;31493;49.058;12.190;2023-03-14T07:48:51;1.88;;;0.70;;
23676;SDS011;31493;49.058;12.190;2023-03-14T07:51:18;1.38;;;0.50;;
23676;SDS011;31493;49.058;12.190;2023-03-14T07:53:45;1.38;;;0.70;;
23676;SDS011;31493;49.058;12.190;2023-03-14T07:56:14;2.15;;;0.60;;
23676;SDS011;31493;49.058;12.190;2023-03-14T07:58:41;0.68;;;0.60;;
23676;SDS011;31493;49.058;12.190;2023-03-14T08:01:08;0.70;;;0.52;;
23676;SDS011;31493;49.058;12.190;2023-03-14T08:03:35;4.32;;;0.60;;
23676;SDS011;31493;49.058;12.190;2023-03-14T08:06:02;3.75;;;0.50;;
23676;SDS011;31493;49.058;12.190;2023-03-14T08:08:29;0.52;;;0.40;;
23676;SDS011;31493;49.058;12.190;2023-03-14T08:11:01;1.15;;;0.60;;
23676;SDS011;31493;49.058;12.190;2023-03-14T08:13:30;1.58;;;0.52;;
23676;SDS011;31493;49.058;12.190;2023-03-14T08:15:58;1.15;;;0.50;;
23676;SDS011;31493;49.058;12.190;2023-03-14T08:18:25;1.80;;;0.50;;
23676;SDS011;31493;49.058;12.190;2023-03-14T08:20:52;1.27;;;0.60;;
23676;SDS011;31493;49.058;12.190;2023-03-14T08:23:19;0.95;;;0.52;;
23676;SDS011;31493;49.058;12.190;2023-03-14T08:25:47;1.73;;;0.50;;
23676;SDS011;31493;49.058;12.190;2023-03-14T08:28:15;1.75;;;0.63;;
23676;SDS011;31493;49.058;12.190;2023-03-14T08:30:43;1.35;;;0.50;;
23676;SDS011;31493;49.058;12.190;2023-03-14T08:33:10;1.83;;;0.47;;
23676;SDS011;31493;49.058;12.190;2023-03-14T08:35:37;1.05;;;0.68;;
23676;SDS011;31493;49.058;12.190;2023-03-14T08:38:05;0.98;;;0.43;;
23676;SDS011;31493;49.058;12.190;2023-03-14T08:40:32;1.90;;;0.80;;
23676;SDS011;31493;49.058;12.190;2023-03-14T08:42:59;2.75;;;0.70;;
23676;SDS011;31493;49.058;12.190;2023-03-14T08:45:26;1.40;;;0.52;;
23676;SDS011;31493;49.058;12.190;2023-03-14T08:47:54;0.68;;;0.35;;
23676;SDS011;31493;49.058;12.190;2023-03-14T08:50:21;1.17;;;0.50;;
23676;SDS011;31493;49.058;12.190;2023-03-14T08:52:48;3.63;;;0.60;;
23676;SDS011;31493;49.058;12.190;2023-03-14T08:55:15;4.85;;;0.52;;
23676;SDS011;31493;49.058;12.190;2023-03-14T08:57:42;1.55;;;0.55;;
23676;SDS011;31493;49.058;12.190;2023-03-14T09:00:10;2.58;;;0.47;;
23676;SDS011;31493;49.058;12.190;2023-03-14T09:02:40;1.65;;;0.43;;
23676;SDS011;31493;49.058;12.190;2023-03-14T09:05:10;1.48;;;0.50;;
23676;SDS011;31493;49.058;12.190;2023-03-14T09:07:37;1.25;;;0.50;;
23676;SDS011;31493;49.058;12.190;2023-03-14T09:10:05;1.60;;;0.63;;
23676;SDS011;31493;49.058;12.190;2023-03-14T09:12:33;0.68;;;0.40;;
23676;SDS011;31493;49.058;12.190;2023-03-14T09:15:00;3.40;;;0.55;;
23676;SDS011;31493;49.058;12.190;2023-03-14T09:17:27;2.08;;;0.68;;
23676;SDS011;31493;49.058;12.190;2023-03-14T09:19:54;0.82;;;0.40;;
23676;SDS011;31493;49.058;12.190;2023-03-14T09:22:22;2.35;;;0.70;;
23676;SDS011;31493;49.058;12.190;2023-03-14T09:24:49;1.88;;;0.50;;
23676;SDS011;31493;49.058;12.190;2023-03-14T09:27:16;1.35;;;0.50;;
23676;SDS011;31493;49.058;12.190;2023-03-14T09:29:43;0.60;;;0.30;;
23676;SDS011;31493;49.058;12.190;2023-03-14T09:32:10;1.80;;;0.68;;
23676;SDS011;31493;49.058;12.190;2023-03-14T09:34:37;1.55;;;0.40;;
23676;SDS011;31493;49.058;12.190;2023-03-14T09:37:04;1.52;;;0.50;;
23676;SDS011;31493;49.058;12.190;2023-03-14T09:39:33;1.65;;;0.40;;
23676;SDS011;31493;49.058;12.190;2023-03-14T09:42:01;0.95;;;0.40;;
23676;SDS011;31493;49.058;12.190;2023-03-14T09:44:31;3.00;;;0.85;;
23676;SDS011;31493;49.058;12.190;2023-03-14T09:47:02;1.77;;;0.40;;
23676;SDS011;31493;49.058;12.190;2023-03-14T09:49:32;0.85;;;0.25;;
23676;SDS011;31493;49.058;12.190;2023-03-14T09:52:01;1.02;;;0.40;;
23676;SDS011;31493;49.058;12.190;2023-03-14T09:54:36;4.22;;;0.52;;
23676;SDS011;31493;49.058;12.190;2023-03-14T09:57:09;1.75;;;0.40;;
23676;SDS011;31493;49.058;12.190;2023-03-14T09:59:40;0.40;;;0.40;;
23676;SDS011;31493;49.058;12.190;2023-03-14T10:02:14;3.90;;;0.60;;
23676;SDS011;31493;49.058;12.190;2023-03-14T10:04:44;0.47;;;0.30;;
23676;SDS011;31493;49.058;12.190;2023-03-14T10:07:13;0.30;;;0.30;;
23676;SDS011;31493;49.058;12.190;2023-03-14T10:09:44;1.05;;;0.28;;
23676;SDS011;31493;49.058;12.190;2023-03-14T10:12:13;0.73;;;0.43;;
23676;SDS011;31493;49.058;12.190;2023-03-14T10:14:45;2.47;;;0.63;;
23676;SDS011;31493;49.058;12.190;2023-03-14T10:17:15;4.90;;;0.65;;
23676;SDS011;31493;49.058;12.190;2023-03-14T10:19:54;1.15;;;0.60;;
23676;SDS011;31493;49.058;12.190;2023-03-14T10:22:23;1.48;;;0.30;;
23676;SDS011;31493;49.058;12.190;2023-03-14T10:24:54;1.35;;;0.50;;
23676;SDS011;31493;49.058;12.190;2023-03-14T10:27:27;3.15;;;0.70;;
23676;SDS011;31493;49.058;12.190;2023-03-14T10:29:56;2.08;;;0.88;;
23676;SDS011;31493;49.058;12.190;2023-03-14T10:32:28;1.92;;;0.60;;
23676;SDS011;31493;49.058;12.190;2023-03-14T10:35:07;1.05;;;0.47;;
23676;SDS011;31493;49.058;12.190;2023-03-14T10:37:51;0.32;;;0.30;;
23676;SDS011;31493;49.058;12.190;2023-03-14T10:40:24;1.42;;;0.60;;
23676;SDS011;31493;49.058;12.190;2023-03-14T10:42:55;1.52;;;0.50;;
23676;SDS011;31493;49.058;12.190;2023-03-14T10:48:21;0.80;;;0.60;;
23676;SDS011;31493;49.058;12.190;2023-03-14T10:50:56;2.10;;;0.60;;
23676;SDS011;31493;49.058;12.190;2023-03-14T10:53:24;0.98;;;0.30;;
23676;SDS011;31493;49.058;12.190;2023-03-14T10:55:54;1.38;;;0.43;;
23676;SDS011;31493;49.058;12.190;2023-03-14T10:58:23;3.50;;;0.45;;
23676;SDS011;31493;49.058;12.190;2023-03-14T11:00:54;6.18;;;0.45;;
23676;SDS011;31493;49.058;12.190;2023-03-14T11:03:28;1.95;;;0.30;;
23676;SDS011;31493;49.058;12.190;2023-03-14T11:05:59;0.38;;;0.20;;
23676;SDS011;31493;49.058;12.190;2023-03-14T11:08:37;1.63;;;0.40;;
23676;SDS011;31493;49.058;12.190;2023-03-14T11:11:13;1.52;;;0.50;;
23676;SDS011;31493;49.058;12.190;2023-03-14T11:13:47;1.45;;;0.25;;
23676;SDS011;31493;49.058;12.190;2023-03-14T11:16:23;0.80;;;0.40;;
23676;SDS011;31493;49.058;12.190;2023-03-14T11:19:00;1.90;;;0.40;;
23676;SDS011;31493;49.058;12.190;2023-03-14T11:21:41;1.52;;;0.52;;
23676;SDS011;31493;49.058;12.190;2023-03-14T11:24:17;0.73;;;0.30;;
23676;SDS011;31493;49.058;12.190;2023-03-14T11:27:06;1.20;;;0.32;;
23676;SDS011;31493;49.058;12.190;2023-03-14T11:29:39;0.85;;;0.40;;
23676;SDS011;31493;49.058;12.190;2023-03-14T11:32:10;2.42;;;0.40;;
23676;SDS011;31493;49.058;12.190;2023-03-14T11:34:42;0.88;;;0.40;;
23676;SDS011;31493;49.058;12.190;2023-03-14T11:37:14;2.33;;;0.50;;
23676;SDS011;31493;49.058;12.190;2023-03-14T11:39:51;1.30;;;0.40;;
23676;SDS011;31493;49.058;12.190;2023-03-14T11:42:27;1.23;;;0.60;;
23676;SDS011;31493;49.058;12.190;2023-03-14T11:44:56;0.70;;;0.40;;
23676;SDS011;31493;49.058;12.190;2023-03-14T11:47:26;1.42;;;0.40;;
23676;SDS011;31493;49.058;12.190;2023-03-14T11:50:00;1.05;;;0.47;;
23676;SDS011;31493;49.058;12.190;2023-03-14T11:52:32;1.15;;;0.52;;
23676;SDS011;31493;49.058;12.190;2023-03-14T11:55:02;3.92;;;0.50;;
23676;SDS011;31493;49.058;12.190;2023-03-14T11:57:35;2.50;;;0.57;;
23676;SDS011;31493;49.058;12.190;2023-03-14T12:00:03;1.73;;;0.40;;
23676;SDS011;31493;49.058;12.190;2023-03-14T12:02:41;0.50;;;0.40;;
23676;SDS011;31493;49.058;12.190;2023-03-14T12:08:34;1.80;;;0.80;;
23676;SDS011;31493;49.058;12.190;2023-03-14T12:11:08;2.03;;;0.30;;
23676;SDS011;31493;49.058;12.190;2023-03-14T12:13:41;0.80;;;0.43;;
23676;SDS011;31493;49.058;12.190;2023-03-14T12:16:26;2.60;;;0.47;;
23676;SDS011;31493;49.058;12.190;2023-03-14T12:19:14;3.20;;;0.60;;
23676;SDS011;31493;49.058;12.190;2023-03-14T12:21:58;1.45;;;0.50;;
23676;SDS011;31493;49.058;12.190;2023-03-14T12:24:29;1.80;;;0.47;;
23676;SDS011;31493;49.058;12.190;2023-03-14T12:26:59;1.67;;;0.40;;
23676;SDS011;31493;49.058;12.190;2023-03-14T12:29:28;1.67;;;0.43;;
23676;SDS011;31493;49.058;12.190;2023-03-14T12:32:06;0.80;;;0.40;;
23676;SDS011;31493;49.058;12.190;2023-03-14T12:34:39;1.30;;;0.50;;
23676;SDS011;31493;49.058;12.190;2023-03-14T12:37:12;1.05;;;0.30;;
23676;SDS011;31493;49.058;12.190;2023-03-14T12:39:47;0.52;;;0.25;;
23676;SDS011;31493;49.058;12.190;2023-03-14T12:42:36;0.75;;;0.30;;
23676;SDS011;31493;49.058;12.190;2023-03-14T12:45:15;0.40;;;0.40;;
23676;SDS011;31493;49.058;12.190;2023-03-14T12:50:42;1.65;;;0.50;;
23676;SDS011;31493;49.058;12.190;2023-03-14T12:56:11;2.90;;;0.50;;
23676;SDS011;31493;49.058;12.190;2023-03-14T12:58:50;1.33;;;0.40;;
23676;SDS011;31493;49.058;12.190;2023-03-14T13:01:30;4.15;;;0.85;;
23676;SDS011;31493;49.058;12.190;2023-03-14T13:04:02;1.85;;;0.55;;
23676;SDS011;31493;49.058;12.190;2023-03-14T13:06:47;1.95;;;0.47;;
23676;SDS011;31493;49.058;12.190;2023-03-14T13:09:35;3.22;;;0.50;;
23676;SDS011;31493;49.058;12.190;2023-03-14T13:12:16;2.42;;;0.40;;
23676;SDS011;31493;49.058;12.190;2023-03-14T13:14:45;1.73;;;0.52;;
23676;SDS011;31493;49.058;12.190;2023-03-14T13:17:22;3.58;;;0.52;;
23676;SDS011;31493;49.058;12.190;2023-03-14T13:19:53;5.97;;;0.50;;
23676;SDS011;31493;49.058;12.190;2023-03-14T13:22:23;4.20;;;0.63;;
23676;SDS011;31493;49.058;12.190;2023-03-14T13:24:58;2.03;;;0.40;;
23676;SDS011;31493;49.058;12.190;2023-03-14T13:27:27;2.25;;;0.60;;
23676;SDS011;31493;49.058;12.190;2023-03-14T13:29:58;0.50;;;0.30;;
23676;SDS011;31493;49.058;12.190;2023-03-14T13:32:27;1.65;;;0.32;;
23676;SDS011;31493;49.058;12.190;2023-03-14T13:34:55;1.33;;;0.40;;
23676;SDS011;31493;49.058;12.190;2023-03-14T13:37:23;0.77;;;0.40;;
23676;SDS011;31493;49.058;12.190;2023-03-14T13:39:52;0.43;;;0.30;;
23676;SDS011;31493;49.058;12.190;2023-03-14T13:42:21;2.80;;;0.47;;
23676;SDS011;31493;49.058;12.190;2023-03-14T13:44:53;0.95;;;0.60;;
23676;SDS011;31493;49.058;12.190;2023-03-14T13:47:22;1.80;;;0.60;;
23676;SDS011;31493;49.058;12.190;2023-03-14T13:49:52;5.15;;;0.63;;
23676;SDS011;31493;49.058;12.190;2023-03-14T13:52:24;1.25;;;0.60;;
23676;SDS011;31493;49.058;12.190;2023-03-14T13:54:55;0.80;;;0.50;;
23676;SDS011;31493;49.058;12.190;2023-03-14T13:57:23;0.77;;;0.40;;
23676;SDS011;31493;49.058;12.190;2023-03-14T14:00:00;1.95;;;0.50;;
23676;SDS011;31493;49.058;12.190;2023-03-14T14:02:34;1.25;;;0.43;;
23676;SDS011;31493;49.058;12.190;2023-03-14T14:05:06;1.17;;;0.50;;
23676;SDS011;31493;49.058;12.190;2023-03-14T14:07:36;1.75;;;0.57;;
23676;SDS011;31493;49.058;12.190;2023-03-14T14:10:04;0.82;;;0.40;;
23676;SDS011;31493;49.058;12.190;2023-03-14T14:12:33;1.57;;;0.60;;
23676;SDS011;31493;49.058;12.190;2023-03-14T14:15:04;1.60;;;0.60;;
23676;SDS011;31493;49.058;12.190;2023-03-14T14:17:34;2.33;;;0.60;;
23676;SDS011;31493;49.058;12.190;2023-03-14T14:20:07;1.88;;;0.60;;
23676;SDS011;31493;49.058;12.190;2023-03-14T14:22:40;0.57;;;0.30;;
23676;SDS011;31493;49.058;12.190;2023-03-14T14:25:12;0.57;;;0.30;;
23676;SDS011;31493;49.058;12.190;2023-03-14T14:27:41;1.27;;;0.40;;
23676;SDS011;31493;49.058;12.190;2023-03-14T14:30:24;1.52;;;0.32;;
23676;SDS011;31493;49.058;12.190;2023-03-14T14:33:06;1.95;;;0.50;;
23676;SDS011;31493;49.058;12.190;2023-03-14T14:35:39;0.75;;;0.40;;
23676;SDS011;31493;49.058;12.190;2023-03-14T14:38:10;1.65;;;0.30;;
23676;SDS011;31493;49.058;12.190;2023-03-14T14:40:43;1.45;;;0.25;;
23676;SDS011;31493;49.058;12.190;2023-03-14T14:43:12;0.30;;;0.30;;
23676;SDS011;31493;49.058;12.190;2023-03-14T14:45:44;1.25;;;0.43;;
23676;SDS011;31493;49.058;12.190;2023-03-14T14:48:14;0.55;;;0.30;;
23676;SDS011;31493;49.058;12.190;2023-03-14T14:50:50;0.40;;;0.30;;
23676;SDS011;31493;49.058;12.190;2023-03-14T14:53:25;1.55;;;0.30;;
23676;SDS011;31493;49.058;12.190;2023-03-14T14:55:56;2.22;;;0.50;;
23676;SDS011;31493;49.058;12.190;2023-03-14T14:58:25;0.30;;;0.30;;
23676;SDS011;31493;49.058;12.190;2023-03-14T15:00:56;0.80;;;0.40;;
23676;SDS011;31493;49.058;12.190;2023-03-14T15:03:26;0.55;;;0.40;;
23676;SDS011;31493;49.058;12.190;2023-03-14T15:05:57;0.43;;;0.30;;